sensor_id;sensor_type;location;lat;lon;timestamp;temperature;humidity
75961;SHT30;64644;48.914;2.254;2023-12-07T00:01:07;8.09;71.99
75961;SHT30;64644;48.914;2.254;2023-12-07T00:03:33;8.02;71.92
75961;SHT30;64644;48.914;2.254;2023-12-07T00:05:58;8.01;71.89
75961;SHT30;64644;48.914;2.254;2023-12-07T00:08:23;8.02;71.95
75961;SHT30;64644;48.914;2.254;2023-12-07T00:10:49;8.06;72.09
75961;SHT30;64644;48.914;2.254;2023-12-07T00:13:14;8.05;72.06
75961;SHT30;64644;48.914;2.254;2023-12-07T00:15:40;8.05;72.06
75961;SHT30;64644;48.914;2.254;2023-12-07T00:18:05;8.02;71.96
75961;SHT30;64644;48.914;2.254;2023-12-07T00:20:31;8.03;72.11
75961;SHT30;64644;48.914;2.254;2023-12-07T00:22:56;8.06;72.21
75961;SHT30;64644;48.914;2.254;2023-12-07T00:25:22;8.10;72.17
75961;SHT30;64644;48.914;2.254;2023-12-07T00:27:48;8.09;72.20
75961;SHT30;64644;48.914;2.254;2023-12-07T00:30:13;8.06;72.10
75961;SHT30;64644;48.914;2.254;2023-12-07T00:32:39;8.09;72.04
75961;SHT30;64644;48.914;2.254;2023-12-07T00:35:08;8.10;72.03
75961;SHT30;64644;48.914;2.254;2023-12-07T00:37:33;8.12;72.03
75961;SHT30;64644;48.914;2.254;2023-12-07T00:39:58;8.13;71.97
75961;SHT30;64644;48.914;2.254;2023-12-07T00:42:24;8.16;71.99
75961;SHT30;64644;48.914;2.254;2023-12-07T00:44:49;8.16;72.00
75961;SHT30;64644;48.914;2.254;2023-12-07T00:47:14;8.17;71.99
75961;SHT30;64644;48.914;2.254;2023-12-07T00:49:40;8.20;71.96
75961;SHT30;64644;48.914;2.254;2023-12-07T00:52:09;8.22;71.92
75961;SHT30;64644;48.914;2.254;2023-12-07T00:54:34;8.20;71.89
75961;SHT30;64644;48.914;2.254;2023-12-07T00:56:59;8.20;71.82
75961;SHT30;64644;48.914;2.254;2023-12-07T00:59:25;8.22;71.80
75961;SHT30;64644;48.914;2.254;2023-12-07T01:01:50;8.20;71.77
75961;SHT30;64644;48.914;2.254;2023-12-07T01:04:15;8.20;71.73
75961;SHT30;64644;48.914;2.254;2023-12-07T01:06:41;8.13;71.59
75961;SHT30;64644;48.914;2.254;2023-12-07T01:09:08;8.06;71.58
75961;SHT30;64644;48.914;2.254;2023-12-07T01:11:38;8.03;71.60
75961;SHT30;64644;48.914;2.254;2023-12-07T01:14:04;8.02;71.69
75961;SHT30;64644;48.914;2.254;2023-12-07T01:16:30;8.02;71.71
75961;SHT30;64644;48.914;2.254;2023-12-07T01:18:55;8.03;71.68
75961;SHT30;64644;48.914;2.254;2023-12-07T01:21:20;7.98;71.61
75961;SHT30;64644;48.914;2.254;2023-12-07T01:23:46;7.95;71.66
75961;SHT30;64644;48.914;2.254;2023-12-07T01:26:11;7.94;71.76
75961;SHT30;64644;48.914;2.254;2023-12-07T01:28:36;7.89;71.71
75961;SHT30;64644;48.914;2.254;2023-12-07T01:31:02;7.91;71.75
75961;SHT30;64644;48.914;2.254;2023-12-07T01:33:27;7.86;71.77
75961;SHT30;64644;48.914;2.254;2023-12-07T01:35:52;7.88;71.88
75961;SHT30;64644;48.914;2.254;2023-12-07T01:38:18;7.85;71.93
75961;SHT30;64644;48.914;2.254;2023-12-07T01:40:44;7.89;71.90
75961;SHT30;64644;48.914;2.254;2023-12-07T01:43:09;7.88;71.89
75961;SHT30;64644;48.914;2.254;2023-12-07T01:45:35;7.88;71.85
75961;SHT30;64644;48.914;2.254;2023-12-07T01:48:00;7.86;71.86
75961;SHT30;64644;48.914;2.254;2023-12-07T01:50:26;7.89;71.87
75961;SHT30;64644;48.914;2.254;2023-12-07T01:53:01;7.92;71.84
75961;SHT30;64644;48.914;2.254;2023-12-07T01:55:27;7.88;71.77
75961;SHT30;64644;48.914;2.254;2023-12-07T01:57:53;7.84;71.70
75961;SHT30;64644;48.914;2.254;2023-12-07T02:00:19;7.85;71.71
75961;SHT30;64644;48.914;2.254;2023-12-07T02:02:45;7.79;71.70
75961;SHT30;64644;48.914;2.254;2023-12-07T02:05:13;7.77;71.72
75961;SHT30;64644;48.914;2.254;2023-12-07T02:07:40;7.78;71.77
75961;SHT30;64644;48.914;2.254;2023-12-07T02:10:06;7.78;71.80
75961;SHT30;64644;48.914;2.254;2023-12-07T02:12:32;7.79;71.82
75961;SHT30;64644;48.914;2.254;2023-12-07T02:15:00;7.78;71.81
75961;SHT30;64644;48.914;2.254;2023-12-07T02:17:44;7.81;71.86
75961;SHT30;64644;48.914;2.254;2023-12-07T02:20:21;7.78;71.93
75961;SHT30;64644;48.914;2.254;2023-12-07T02:22:56;7.84;71.95
75961;SHT30;64644;48.914;2.254;2023-12-07T02:25:51;7.84;71.97
75961;SHT30;64644;48.914;2.254;2023-12-07T02:28:16;7.85;72.02
75961;SHT30;64644;48.914;2.254;2023-12-07T02:30:42;7.88;71.91
75961;SHT30;64644;48.914;2.254;2023-12-07T02:33:07;7.86;71.94
75961;SHT30;64644;48.914;2.254;2023-12-07T02:35:35;7.91;71.96
75961;SHT30;64644;48.914;2.254;2023-12-07T02:38:01;7.91;71.97
75961;SHT30;64644;48.914;2.254;2023-12-07T02:40:27;7.95;71.89
75961;SHT30;64644;48.914;2.254;2023-12-07T02:42:54;7.91;71.85
75961;SHT30;64644;48.914;2.254;2023-12-07T02:45:20;7.91;71.88
75961;SHT30;64644;48.914;2.254;2023-12-07T02:47:45;7.94;71.90
75961;SHT30;64644;48.914;2.254;2023-12-07T02:50:11;7.92;71.86
75961;SHT30;64644;48.914;2.254;2023-12-07T02:52:37;7.91;71.82
75961;SHT30;64644;48.914;2.254;2023-12-07T02:55:03;7.91;71.85
75961;SHT30;64644;48.914;2.254;2023-12-07T02:57:29;7.89;71.87
75961;SHT30;64644;48.914;2.254;2023-12-07T02:59:55;7.88;71.83
75961;SHT30;64644;48.914;2.254;2023-12-07T03:02:20;7.86;71.77
75961;SHT30;64644;48.914;2.254;2023-12-07T03:04:46;7.82;71.76
75961;SHT30;64644;48.914;2.254;2023-12-07T03:07:11;7.78;71.77
75961;SHT30;64644;48.914;2.254;2023-12-07T03:09:36;7.73;71.76
75961;SHT30;64644;48.914;2.254;2023-12-07T03:12:02;7.71;71.84
75961;SHT30;64644;48.914;2.254;2023-12-07T03:14:27;7.70;71.96
75961;SHT30;64644;48.914;2.254;2023-12-07T03:16:53;7.73;71.98
75961;SHT30;64644;48.914;2.254;2023-12-07T03:19:18;7.71;71.96
75961;SHT30;64644;48.914;2.254;2023-12-07T03:21:43;7.71;72.02
75961;SHT30;64644;48.914;2.254;2023-12-07T03:24:09;7.73;71.99
75961;SHT30;64644;48.914;2.254;2023-12-07T03:26:35;7.71;71.89
75961;SHT30;64644;48.914;2.254;2023-12-07T03:29:01;7.70;71.92
75961;SHT30;64644;48.914;2.254;2023-12-07T03:31:27;7.68;71.88
75961;SHT30;64644;48.914;2.254;2023-12-07T03:33:53;7.67;71.88
75961;SHT30;64644;48.914;2.254;2023-12-07T03:36:19;7.64;71.80
75961;SHT30;64644;48.914;2.254;2023-12-07T03:38:44;7.63;71.80
75961;SHT30;64644;48.914;2.254;2023-12-07T03:41:09;7.63;71.92
75961;SHT30;64644;48.914;2.254;2023-12-07T03:43:35;7.64;71.93
75961;SHT30;64644;48.914;2.254;2023-12-07T03:46:04;7.64;71.97
75961;SHT30;64644;48.914;2.254;2023-12-07T03:48:29;7.66;71.93
75961;SHT30;64644;48.914;2.254;2023-12-07T03:50:54;7.64;71.98
75961;SHT30;64644;48.914;2.254;2023-12-07T03:53:20;7.70;71.99
75961;SHT30;64644;48.914;2.254;2023-12-07T03:55:45;7.67;71.89
75961;SHT30;64644;48.914;2.254;2023-12-07T03:58:10;7.67;71.90
75961;SHT30;64644;48.914;2.254;2023-12-07T04:00:35;7.67;71.94
75961;SHT30;64644;48.914;2.254;2023-12-07T04:03:01;7.66;71.95
75961;SHT30;64644;48.914;2.254;2023-12-07T04:05:26;7.66;71.97
75961;SHT30;64644;48.914;2.254;2023-12-07T04:07:51;7.70;71.98
75961;SHT30;64644;48.914;2.254;2023-12-07T04:10:17;7.71;71.99
75961;SHT30;64644;48.914;2.254;2023-12-07T04:12:42;7.71;72.03
75961;SHT30;64644;48.914;2.254;2023-12-07T04:15:08;7.71;71.90
75961;SHT30;64644;48.914;2.254;2023-12-07T04:17:33;7.70;71.89
75961;SHT30;64644;48.914;2.254;2023-12-07T04:19:58;7.68;71.83
75961;SHT30;64644;48.914;2.254;2023-12-07T04:22:24;7.64;71.87
75961;SHT30;64644;48.914;2.254;2023-12-07T04:24:49;7.66;71.87
75961;SHT30;64644;48.914;2.254;2023-12-07T04:27:15;7.63;71.82
75961;SHT30;64644;48.914;2.254;2023-12-07T04:29:40;7.60;71.85
75961;SHT30;64644;48.914;2.254;2023-12-07T04:32:06;7.57;71.89
75961;SHT30;64644;48.914;2.254;2023-12-07T04:34:32;7.53;71.87
75961;SHT30;64644;48.914;2.254;2023-12-07T04:36:57;7.49;71.94
75961;SHT30;64644;48.914;2.254;2023-12-07T04:39:22;7.47;72.06
75961;SHT30;64644;48.914;2.254;2023-12-07T04:41:48;7.50;72.16
75961;SHT30;64644;48.914;2.254;2023-12-07T04:44:14;7.49;72.13
75961;SHT30;64644;48.914;2.254;2023-12-07T04:46:40;7.50;72.20
75961;SHT30;64644;48.914;2.254;2023-12-07T04:49:07;7.47;72.02
75961;SHT30;64644;48.914;2.254;2023-12-07T04:51:32;7.44;72.04
75961;SHT30;64644;48.914;2.254;2023-12-07T04:53:58;7.43;72.07
75961;SHT30;64644;48.914;2.254;2023-12-07T04:56:23;7.44;72.19
75961;SHT30;64644;48.914;2.254;2023-12-07T04:58:48;7.47;72.24
75961;SHT30;64644;48.914;2.254;2023-12-07T05:01:14;7.49;72.26
75961;SHT30;64644;48.914;2.254;2023-12-07T05:03:39;7.49;72.24
75961;SHT30;64644;48.914;2.254;2023-12-07T05:06:04;7.53;72.25
75961;SHT30;64644;48.914;2.254;2023-12-07T05:08:30;7.53;72.17
75961;SHT30;64644;48.914;2.254;2023-12-07T05:10:57;7.53;72.23
75961;SHT30;64644;48.914;2.254;2023-12-07T05:13:22;7.56;72.28
75961;SHT30;64644;48.914;2.254;2023-12-07T05:15:47;7.58;72.23
75961;SHT30;64644;48.914;2.254;2023-12-07T05:18:13;7.57;72.18
75961;SHT30;64644;48.914;2.254;2023-12-07T05:20:38;7.57;72.13
75961;SHT30;64644;48.914;2.254;2023-12-07T05:23:04;7.56;72.08
75961;SHT30;64644;48.914;2.254;2023-12-07T05:25:30;7.56;72.06
75961;SHT30;64644;48.914;2.254;2023-12-07T05:27:55;7.57;72.07
75961;SHT30;64644;48.914;2.254;2023-12-07T05:30:20;7.58;72.20
75961;SHT30;64644;48.914;2.254;2023-12-07T05:32:46;7.61;72.25
75961;SHT30;64644;48.914;2.254;2023-12-07T05:35:11;7.63;72.25
75961;SHT30;64644;48.914;2.254;2023-12-07T05:37:36;7.67;72.21
75961;SHT30;64644;48.914;2.254;2023-12-07T05:40:02;7.68;72.10
75961;SHT30;64644;48.914;2.254;2023-12-07T05:42:27;7.68;71.92
75961;SHT30;64644;48.914;2.254;2023-12-07T05:44:53;7.70;71.92
75961;SHT30;64644;48.914;2.254;2023-12-07T05:47:18;7.66;71.92
75961;SHT30;64644;48.914;2.254;2023-12-07T05:49:43;7.66;71.92
75961;SHT30;64644;48.914;2.254;2023-12-07T05:52:09;7.63;71.93
75961;SHT30;64644;48.914;2.254;2023-12-07T05:54:34;7.66;71.99
75961;SHT30;64644;48.914;2.254;2023-12-07T05:56:59;7.70;72.05
75961;SHT30;64644;48.914;2.254;2023-12-07T05:59:25;7.70;72.05
75961;SHT30;64644;48.914;2.254;2023-12-07T06:01:53;7.73;72.03
75961;SHT30;64644;48.914;2.254;2023-12-07T06:04:19;7.75;72.01
75961;SHT30;64644;48.914;2.254;2023-12-07T06:06:45;7.78;71.88
75961;SHT30;64644;48.914;2.254;2023-12-07T06:09:10;7.77;71.79
75961;SHT30;64644;48.914;2.254;2023-12-07T06:11:35;7.79;71.80
75961;SHT30;64644;48.914;2.254;2023-12-07T06:14:01;7.78;71.70
75961;SHT30;64644;48.914;2.254;2023-12-07T06:16:27;7.75;71.72
75961;SHT30;64644;48.914;2.254;2023-12-07T06:18:52;7.78;71.74
75961;SHT30;64644;48.914;2.254;2023-12-07T06:21:17;7.81;71.71
75961;SHT30;64644;48.914;2.254;2023-12-07T06:23:43;7.75;71.66
75961;SHT30;64644;48.914;2.254;2023-12-07T06:26:11;7.75;71.71
75961;SHT30;64644;48.914;2.254;2023-12-07T06:28:37;7.74;71.66
75961;SHT30;64644;48.914;2.254;2023-12-07T06:31:05;7.79;71.73
75961;SHT30;64644;48.914;2.254;2023-12-07T06:33:32;7.81;71.70
75961;SHT30;64644;48.914;2.254;2023-12-07T06:35:57;7.79;71.60
75961;SHT30;64644;48.914;2.254;2023-12-07T06:38:22;7.78;71.50
75961;SHT30;64644;48.914;2.254;2023-12-07T06:40:47;7.78;71.49
75961;SHT30;64644;48.914;2.254;2023-12-07T06:43:13;7.81;71.59
75961;SHT30;64644;48.914;2.254;2023-12-07T06:45:39;7.82;71.55
75961;SHT30;64644;48.914;2.254;2023-12-07T06:48:05;7.79;71.45
75961;SHT30;64644;48.914;2.254;2023-12-07T06:50:30;7.75;71.43
75961;SHT30;64644;48.914;2.254;2023-12-07T06:52:55;7.75;71.38
75961;SHT30;64644;48.914;2.254;2023-12-07T06:55:21;7.74;71.37
75961;SHT30;64644;48.914;2.254;2023-12-07T06:57:47;7.73;71.38
75961;SHT30;64644;48.914;2.254;2023-12-07T07:00:13;7.77;71.46
75961;SHT30;64644;48.914;2.254;2023-12-07T07:02:39;7.77;71.42
75961;SHT30;64644;48.914;2.254;2023-12-07T07:05:04;7.74;71.38
75961;SHT30;64644;48.914;2.254;2023-12-07T07:07:30;7.77;71.43
75961;SHT30;64644;48.914;2.254;2023-12-07T07:09:56;7.77;71.45
75961;SHT30;64644;48.914;2.254;2023-12-07T07:12:23;7.79;71.41
75961;SHT30;64644;48.914;2.254;2023-12-07T07:14:48;7.81;71.33
75961;SHT30;64644;48.914;2.254;2023-12-07T07:17:14;7.84;71.32
75961;SHT30;64644;48.914;2.254;2023-12-07T07:19:39;7.84;71.33
75961;SHT30;64644;48.914;2.254;2023-12-07T07:22:05;7.88;71.26
75961;SHT30;64644;48.914;2.254;2023-12-07T07:24:30;7.88;71.24
75961;SHT30;64644;48.914;2.254;2023-12-07T07:26:56;7.88;71.19
75961;SHT30;64644;48.914;2.254;2023-12-07T07:29:21;7.88;71.18
75961;SHT30;64644;48.914;2.254;2023-12-07T07:31:47;7.89;71.17
75961;SHT30;64644;48.914;2.254;2023-12-07T07:34:12;7.88;71.12
75961;SHT30;64644;48.914;2.254;2023-12-07T07:36:37;7.86;71.09
75961;SHT30;64644;48.914;2.254;2023-12-07T07:39:03;7.88;71.11
75961;SHT30;64644;48.914;2.254;2023-12-07T07:41:30;7.86;71.00
75961;SHT30;64644;48.914;2.254;2023-12-07T07:43:55;7.84;71.02
75961;SHT30;64644;48.914;2.254;2023-12-07T07:46:20;7.81;70.99
75961;SHT30;64644;48.914;2.254;2023-12-07T07:48:46;7.79;71.03
75961;SHT30;64644;48.914;2.254;2023-12-07T07:51:11;7.79;71.08
75961;SHT30;64644;48.914;2.254;2023-12-07T07:53:36;7.82;71.06
75961;SHT30;64644;48.914;2.254;2023-12-07T07:56:02;7.86;71.06
75961;SHT30;64644;48.914;2.254;2023-12-07T07:58:27;7.86;71.01
75961;SHT30;64644;48.914;2.254;2023-12-07T08:00:52;7.85;70.93
75961;SHT30;64644;48.914;2.254;2023-12-07T08:03:18;7.85;70.96
75961;SHT30;64644;48.914;2.254;2023-12-07T08:05:43;7.88;70.88
75961;SHT30;64644;48.914;2.254;2023-12-07T08:08:08;7.79;70.73
75961;SHT30;64644;48.914;2.254;2023-12-07T08:10:34;7.82;70.79
75961;SHT30;64644;48.914;2.254;2023-12-07T08:12:59;7.84;70.80
75961;SHT30;64644;48.914;2.254;2023-12-07T08:15:24;7.84;70.72
75961;SHT30;64644;48.914;2.254;2023-12-07T08:17:50;7.84;70.71
75961;SHT30;64644;48.914;2.254;2023-12-07T08:20:16;7.82;70.65
75961;SHT30;64644;48.914;2.254;2023-12-07T08:22:41;7.84;70.60
75961;SHT30;64644;48.914;2.254;2023-12-07T08:25:07;7.85;70.60
75961;SHT30;64644;48.914;2.254;2023-12-07T08:27:34;7.84;70.53
75961;SHT30;64644;48.914;2.254;2023-12-07T08:30:00;7.84;70.53
75961;SHT30;64644;48.914;2.254;2023-12-07T08:32:26;7.84;70.51
75961;SHT30;64644;48.914;2.254;2023-12-07T08:34:52;7.82;70.45
75961;SHT30;64644;48.914;2.254;2023-12-07T08:37:19;7.85;70.43
75961;SHT30;64644;48.914;2.254;2023-12-07T08:39:45;7.86;70.39
75961;SHT30;64644;48.914;2.254;2023-12-07T08:42:11;7.84;70.36
75961;SHT30;64644;48.914;2.254;2023-12-07T08:44:37;7.88;70.29
75961;SHT30;64644;48.914;2.254;2023-12-07T08:47:02;7.85;70.29
75961;SHT30;64644;48.914;2.254;2023-12-07T08:49:28;7.82;70.27
75961;SHT30;64644;48.914;2.254;2023-12-07T08:51:53;7.85;70.29
75961;SHT30;64644;48.914;2.254;2023-12-07T08:54:19;7.82;70.22
75961;SHT30;64644;48.914;2.254;2023-12-07T08:56:45;7.86;70.27
75961;SHT30;64644;48.914;2.254;2023-12-07T08:59:11;7.88;70.18
75961;SHT30;64644;48.914;2.254;2023-12-07T09:01:36;7.91;70.14
75961;SHT30;64644;48.914;2.254;2023-12-07T09:04:01;7.95;70.05
75961;SHT30;64644;48.914;2.254;2023-12-07T09:06:27;7.98;70.07
75961;SHT30;64644;48.914;2.254;2023-12-07T09:08:52;8.01;70.09
75961;SHT30;64644;48.914;2.254;2023-12-07T09:11:17;8.03;70.05
75961;SHT30;64644;48.914;2.254;2023-12-07T09:13:43;8.07;70.00
75961;SHT30;64644;48.914;2.254;2023-12-07T09:16:08;8.07;69.89
75961;SHT30;64644;48.914;2.254;2023-12-07T09:18:34;8.07;69.85
75961;SHT30;64644;48.914;2.254;2023-12-07T09:21:00;8.16;69.72
75961;SHT30;64644;48.914;2.254;2023-12-07T09:23:26;8.14;69.56
75961;SHT30;64644;48.914;2.254;2023-12-07T09:25:51;8.22;69.51
75961;SHT30;64644;48.914;2.254;2023-12-07T09:28:17;8.30;69.47
75961;SHT30;64644;48.914;2.254;2023-12-07T09:30:42;8.36;69.43
75961;SHT30;64644;48.914;2.254;2023-12-07T09:33:09;8.37;69.38
75961;SHT30;64644;48.914;2.254;2023-12-07T09:35:34;8.41;69.27
75961;SHT30;64644;48.914;2.254;2023-12-07T09:38:00;8.48;69.21
75961;SHT30;64644;48.914;2.254;2023-12-07T09:40:25;8.51;69.16
75961;SHT30;64644;48.914;2.254;2023-12-07T09:42:52;8.48;69.02
75961;SHT30;64644;48.914;2.254;2023-12-07T09:45:19;8.51;69.02
75961;SHT30;64644;48.914;2.254;2023-12-07T09:47:50;8.60;68.95
75961;SHT30;64644;48.914;2.254;2023-12-07T09:50:25;8.63;68.83
75961;SHT30;64644;48.914;2.254;2023-12-07T09:52:52;8.61;68.74
75961;SHT30;64644;48.914;2.254;2023-12-07T09:55:18;8.64;68.53
75961;SHT30;64644;48.914;2.254;2023-12-07T09:57:45;8.65;68.43
75961;SHT30;64644;48.914;2.254;2023-12-07T10:00:12;8.69;68.29
75961;SHT30;64644;48.914;2.254;2023-12-07T10:02:40;8.72;68.24
75961;SHT30;64644;48.914;2.254;2023-12-07T10:05:07;8.72;68.13
75961;SHT30;64644;48.914;2.254;2023-12-07T10:07:36;8.79;68.31
75961;SHT30;64644;48.914;2.254;2023-12-07T10:10:03;8.76;68.20
75961;SHT30;64644;48.914;2.254;2023-12-07T10:12:33;8.72;67.98
75961;SHT30;64644;48.914;2.254;2023-12-07T10:15:14;8.71;67.63
75961;SHT30;64644;48.914;2.254;2023-12-07T10:17:46;8.74;67.58
75961;SHT30;64644;48.914;2.254;2023-12-07T10:20:17;8.78;67.53
75961;SHT30;64644;48.914;2.254;2023-12-07T10:22:44;8.81;67.53
75961;SHT30;64644;48.914;2.254;2023-12-07T10:25:10;8.84;67.49
75961;SHT30;64644;48.914;2.254;2023-12-07T10:27:37;8.82;67.47
75961;SHT30;64644;48.914;2.254;2023-12-07T10:30:05;8.82;67.52
75961;SHT30;64644;48.914;2.254;2023-12-07T10:32:32;8.79;67.44
75961;SHT30;64644;48.914;2.254;2023-12-07T10:35:01;8.76;67.29
75961;SHT30;64644;48.914;2.254;2023-12-07T10:37:26;8.76;67.25
75961;SHT30;64644;48.914;2.254;2023-12-07T10:39:51;8.84;67.38
75961;SHT30;64644;48.914;2.254;2023-12-07T10:42:18;8.84;67.46
75961;SHT30;64644;48.914;2.254;2023-12-07T10:44:50;8.82;67.45
75961;SHT30;64644;48.914;2.254;2023-12-07T10:47:16;8.74;67.35
75961;SHT30;64644;48.914;2.254;2023-12-07T10:49:43;8.76;67.08
75961;SHT30;64644;48.914;2.254;2023-12-07T10:52:13;8.76;67.17
75961;SHT30;64644;48.914;2.254;2023-12-07T10:55:00;8.76;66.96
75961;SHT30;64644;48.914;2.254;2023-12-07T10:57:30;8.78;66.97
75961;SHT30;64644;48.914;2.254;2023-12-07T10:59:57;8.75;67.09
75961;SHT30;64644;48.914;2.254;2023-12-07T11:02:25;8.74;67.07
75961;SHT30;64644;48.914;2.254;2023-12-07T11:04:54;8.74;66.94
75961;SHT30;64644;48.914;2.254;2023-12-07T11:07:21;8.75;67.03
75961;SHT30;64644;48.914;2.254;2023-12-07T11:09:53;8.75;66.77
75961;SHT30;64644;48.914;2.254;2023-12-07T11:12:31;8.75;66.78
75961;SHT30;64644;48.914;2.254;2023-12-07T11:14:58;8.82;66.61
75961;SHT30;64644;48.914;2.254;2023-12-07T11:17:24;8.86;66.57
75961;SHT30;64644;48.914;2.254;2023-12-07T11:19:49;8.92;66.61
75961;SHT30;64644;48.914;2.254;2023-12-07T11:22:15;8.92;66.43
75961;SHT30;64644;48.914;2.254;2023-12-07T11:24:54;8.92;66.52
75961;SHT30;64644;48.914;2.254;2023-12-07T11:27:21;8.86;66.51
75961;SHT30;64644;48.914;2.254;2023-12-07T11:29:47;8.88;66.34
75961;SHT30;64644;48.914;2.254;2023-12-07T11:32:15;8.86;66.42
75961;SHT30;64644;48.914;2.254;2023-12-07T11:34:42;8.86;66.39
75961;SHT30;64644;48.914;2.254;2023-12-07T11:37:09;8.85;66.43
75961;SHT30;64644;48.914;2.254;2023-12-07T11:39:42;8.82;66.40
75961;SHT30;64644;48.914;2.254;2023-12-07T11:42:11;8.82;66.46
75961;SHT30;64644;48.914;2.254;2023-12-07T11:44:38;8.78;66.33
75961;SHT30;64644;48.914;2.254;2023-12-07T11:47:04;8.82;66.39
75961;SHT30;64644;48.914;2.254;2023-12-07T11:49:31;8.84;66.57
75961;SHT30;64644;48.914;2.254;2023-12-07T11:51:57;8.76;66.48
75961;SHT30;64644;48.914;2.254;2023-12-07T11:54:23;8.75;66.43
75961;SHT30;64644;48.914;2.254;2023-12-07T11:56:55;8.74;66.39
75961;SHT30;64644;48.914;2.254;2023-12-07T11:59:21;8.71;66.59
75961;SHT30;64644;48.914;2.254;2023-12-07T12:01:51;8.68;66.45
75961;SHT30;64644;48.914;2.254;2023-12-07T12:04:16;8.69;66.42
75961;SHT30;64644;48.914;2.254;2023-12-07T12:06:45;8.74;66.62
75961;SHT30;64644;48.914;2.254;2023-12-07T12:09:14;8.74;66.53
75961;SHT30;64644;48.914;2.254;2023-12-07T12:11:49;8.74;66.57
75961;SHT30;64644;48.914;2.254;2023-12-07T12:14:15;8.75;66.65
75961;SHT30;64644;48.914;2.254;2023-12-07T12:16:42;8.69;66.61
75961;SHT30;64644;48.914;2.254;2023-12-07T12:19:08;8.69;66.50
75961;SHT30;64644;48.914;2.254;2023-12-07T12:21:34;8.67;66.55
75961;SHT30;64644;48.914;2.254;2023-12-07T12:24:00;8.67;66.49
75961;SHT30;64644;48.914;2.254;2023-12-07T12:26:26;8.63;66.56
75961;SHT30;64644;48.914;2.254;2023-12-07T12:28:51;8.64;66.59
75961;SHT30;64644;48.914;2.254;2023-12-07T12:31:18;8.65;66.65
75961;SHT30;64644;48.914;2.254;2023-12-07T12:33:43;8.63;66.70
75961;SHT30;64644;48.914;2.254;2023-12-07T12:36:08;8.60;66.71
75961;SHT30;64644;48.914;2.254;2023-12-07T12:38:36;8.58;66.78
75961;SHT30;64644;48.914;2.254;2023-12-07T12:41:02;8.56;66.75
75961;SHT30;64644;48.914;2.254;2023-12-07T12:43:30;8.56;66.78
75961;SHT30;64644;48.914;2.254;2023-12-07T12:45:57;8.57;66.78
75961;SHT30;64644;48.914;2.254;2023-12-07T12:48:23;8.58;66.87
75961;SHT30;64644;48.914;2.254;2023-12-07T12:50:48;8.60;66.85
75961;SHT30;64644;48.914;2.254;2023-12-07T12:53:14;8.64;66.87
75961;SHT30;64644;48.914;2.254;2023-12-07T12:55:41;8.65;66.78
75961;SHT30;64644;48.914;2.254;2023-12-07T12:58:08;8.71;66.71
75961;SHT30;64644;48.914;2.254;2023-12-07T13:00:38;8.72;66.72
75961;SHT30;64644;48.914;2.254;2023-12-07T13:03:05;8.78;66.70
75961;SHT30;64644;48.914;2.254;2023-12-07T13:05:30;8.85;66.73
75961;SHT30;64644;48.914;2.254;2023-12-07T13:07:57;8.91;66.74
75961;SHT30;64644;48.914;2.254;2023-12-07T13:10:24;8.93;66.69
75961;SHT30;64644;48.914;2.254;2023-12-07T13:12:49;8.96;66.68
75961;SHT30;64644;48.914;2.254;2023-12-07T13:15:14;8.99;66.68
75961;SHT30;64644;48.914;2.254;2023-12-07T13:17:40;9.03;66.72
75961;SHT30;64644;48.914;2.254;2023-12-07T13:20:07;9.08;66.67
75961;SHT30;64644;48.914;2.254;2023-12-07T13:22:38;9.09;66.63
75961;SHT30;64644;48.914;2.254;2023-12-07T13:25:05;9.15;66.78
75961;SHT30;64644;48.914;2.254;2023-12-07T13:27:32;9.19;66.69
75961;SHT30;64644;48.914;2.254;2023-12-07T13:29:57;9.22;66.78
75961;SHT30;64644;48.914;2.254;2023-12-07T13:32:23;9.20;66.76
75961;SHT30;64644;48.914;2.254;2023-12-07T13:34:48;9.22;66.69
75961;SHT30;64644;48.914;2.254;2023-12-07T13:37:14;9.23;66.73
75961;SHT30;64644;48.914;2.254;2023-12-07T13:39:39;9.20;66.73
75961;SHT30;64644;48.914;2.254;2023-12-07T13:42:04;9.16;66.83
75961;SHT30;64644;48.914;2.254;2023-12-07T13:44:30;9.12;66.85
75961;SHT30;64644;48.914;2.254;2023-12-07T13:46:57;9.06;66.99
75961;SHT30;64644;48.914;2.254;2023-12-07T13:49:23;9.08;67.07
75961;SHT30;64644;48.914;2.254;2023-12-07T13:51:48;9.05;67.16
75961;SHT30;64644;48.914;2.254;2023-12-07T13:54:13;9.03;67.22
75961;SHT30;64644;48.914;2.254;2023-12-07T13:56:39;8.99;67.17
75961;SHT30;64644;48.914;2.254;2023-12-07T13:59:04;8.99;67.21
75961;SHT30;64644;48.914;2.254;2023-12-07T14:01:32;8.98;67.22
75961;SHT30;64644;48.914;2.254;2023-12-07T14:03:58;8.99;67.23
75961;SHT30;64644;48.914;2.254;2023-12-07T14:06:24;9.00;67.26
75961;SHT30;64644;48.914;2.254;2023-12-07T14:08:49;9.00;67.40
75961;SHT30;64644;48.914;2.254;2023-12-07T14:11:16;9.02;67.37
75961;SHT30;64644;48.914;2.254;2023-12-07T14:13:41;9.00;67.23
75961;SHT30;64644;48.914;2.254;2023-12-07T14:16:07;8.99;67.15
75961;SHT30;64644;48.914;2.254;2023-12-07T14:18:34;8.99;67.14
75961;SHT30;64644;48.914;2.254;2023-12-07T14:20:59;8.99;67.16
75961;SHT30;64644;48.914;2.254;2023-12-07T14:23:24;8.98;67.06
75961;SHT30;64644;48.914;2.254;2023-12-07T14:25:50;9.03;67.15
75961;SHT30;64644;48.914;2.254;2023-12-07T14:28:18;9.05;67.11
75961;SHT30;64644;48.914;2.254;2023-12-07T14:30:44;9.06;67.09
75961;SHT30;64644;48.914;2.254;2023-12-07T14:33:09;9.02;67.08
75961;SHT30;64644;48.914;2.254;2023-12-07T14:35:34;8.98;66.95
75961;SHT30;64644;48.914;2.254;2023-12-07T14:37:59;9.00;66.99
75961;SHT30;64644;48.914;2.254;2023-12-07T14:40:25;9.02;66.98
75961;SHT30;64644;48.914;2.254;2023-12-07T14:42:51;9.02;66.94
75961;SHT30;64644;48.914;2.254;2023-12-07T14:45:16;9.02;66.78
75961;SHT30;64644;48.914;2.254;2023-12-07T14:47:45;9.02;66.89
75961;SHT30;64644;48.914;2.254;2023-12-07T14:50:11;9.00;66.84
75961;SHT30;64644;48.914;2.254;2023-12-07T14:52:36;9.00;66.86
75961;SHT30;64644;48.914;2.254;2023-12-07T14:55:01;8.98;66.83
75961;SHT30;64644;48.914;2.254;2023-12-07T14:57:29;8.99;66.82
75961;SHT30;64644;48.914;2.254;2023-12-07T14:59:54;8.99;66.78
75961;SHT30;64644;48.914;2.254;2023-12-07T15:02:21;9.02;66.74
75961;SHT30;64644;48.914;2.254;2023-12-07T15:04:46;9.02;66.72
75961;SHT30;64644;48.914;2.254;2023-12-07T15:07:12;9.00;66.61
75961;SHT30;64644;48.914;2.254;2023-12-07T15:09:38;9.02;66.65
75961;SHT30;64644;48.914;2.254;2023-12-07T15:12:03;8.99;66.58
75961;SHT30;64644;48.914;2.254;2023-12-07T15:14:29;8.98;66.65
75961;SHT30;64644;48.914;2.254;2023-12-07T15:16:54;8.96;66.53
75961;SHT30;64644;48.914;2.254;2023-12-07T15:19:20;8.95;66.54
75961;SHT30;64644;48.914;2.254;2023-12-07T15:21:45;8.92;66.59
75961;SHT30;64644;48.914;2.254;2023-12-07T15:24:10;8.92;66.55
75961;SHT30;64644;48.914;2.254;2023-12-07T15:26:35;8.93;66.62
75961;SHT30;64644;48.914;2.254;2023-12-07T15:29:01;8.98;66.65
75961;SHT30;64644;48.914;2.254;2023-12-07T15:31:27;8.98;66.81
75961;SHT30;64644;48.914;2.254;2023-12-07T15:33:52;8.95;66.76
75961;SHT30;64644;48.914;2.254;2023-12-07T15:36:18;8.96;66.76
75961;SHT30;64644;48.914;2.254;2023-12-07T15:38:43;8.95;66.71